Time;durP1;ratioP1;P1;durP2;ratioP2;P2;SDS_P1;SDS_P2;PMS_P1;PMS_P2;Temp;Humidity;BMP_temperature;BMP_pressure;BME280_temperature;BME280_humidity;BME280_pressure;Samples;Min_cycle;Max_cycle;Signal;HPM_P1;HPM_P2
2022/11/26 00:02:15;;;;;;;15.10;9.60;;;9.60;88.50;;;12.42;62.91;102271.53;5071141;28;20305;-56
2022/11/26 00:04:42;;;;;;;12.23;8.60;;;9.60;88.60;;;12.43;63.02;102272.38;5073722;28;20197;-57
2022/11/26 00:07:14;;;;;;;19.57;9.77;;;9.60;88.70;;;12.41;62.93;102272.50;5072356;28;20201;-58
2022/11/26 00:09:41;;;;;;;13.47;9.03;;;9.60;88.60;;;12.39;62.97;102276.25;5073251;28;20246;-54
2022/11/26 00:12:15;;;;;;;16.27;10.17;;;9.60;88.70;;;12.35;62.99;102269.63;5071762;28;20213;-57
2022/11/26 00:14:43;;;;;;;13.93;9.50;;;9.60;88.60;;;12.35;63.10;102272.28;5073374;28;20202;-56
2022/11/26 00:17:12;;;;;;;19.07;9.80;;;9.60;88.70;;;12.35;62.90;102280.19;5064251;28;20216;-54
2022/11/26 00:19:39;;;;;;;16.27;9.93;;;9.60;88.70;;;12.33;63.22;102276.88;5066278;28;20559;-56
2022/11/26 00:22:23;;;;;;;13.77;10.13;;;9.50;88.60;;;12.30;62.99;102287.72;5079552;28;20283;-58
2022/11/26 00:24:51;;;;;;;14.67;9.40;;;9.50;88.70;;;12.31;62.71;102286.75;5087422;28;20174;-57
2022/11/26 00:27:20;;;;;;;13.40;8.20;;;9.50;88.70;;;12.29;62.74;102292.16;5086845;28;20217;-56
2022/11/26 00:29:47;;;;;;;14.47;8.83;;;9.50;88.70;;;12.28;62.80;102289.69;5087218;28;20190;-57
2022/11/26 00:32:17;;;;;;;24.07;9.53;;;9.50;88.80;;;12.26;62.97;102291.63;5090352;28;20297;-57
2022/11/26 00:34:45;;;;;;;15.03;9.73;;;9.50;88.80;;;12.24;62.89;102295.25;5074518;28;20181;-57
2022/11/26 00:37:20;;;;;;;21.50;10.10;;;9.50;88.70;;;12.23;63.09;102298.03;5072485;28;20193;-56
2022/11/26 00:39:48;;;;;;;17.70;9.30;;;9.40;88.80;;;12.22;63.25;102307.75;5088693;28;20191;-56
2022/11/26 00:42:15;;;;;;;18.90;9.73;;;9.40;88.80;;;12.22;63.02;102302.47;5090387;28;20213;-58
2022/11/26 00:44:42;;;;;;;12.80;8.30;;;9.40;88.90;;;12.22;63.06;102310.41;5089733;28;20243;-57
2022/11/26 00:47:09;;;;;;;10.90;8.20;;;9.40;88.90;;;12.23;62.86;102308.59;5078683;28;20275;-57
2022/11/26 00:49:37;;;;;;;12.53;7.97;;;9.40;88.90;;;12.24;63.03;102310.28;5080391;28;20217;-56
2022/11/26 00:52:13;;;;;;;17.83;9.53;;;9.40;88.90;;;12.23;62.89;102312.09;5084185;28;20251;-57
2022/11/26 00:54:41;;;;;;;16.57;9.07;;;9.40;88.90;;;12.20;63.09;102309.72;5082850;28;20212;-59
2022/11/26 00:57:10;;;;;;;18.23;9.00;;;9.40;88.80;;;12.20;63.03;102314.16;5083660;28;20195;-57
2022/11/26 00:59:37;;;;;;;18.93;9.67;;;9.40;88.80;;;12.17;63.08;102319.75;5087808;28;20181;-57
2022/11/26 01:02:04;;;;;;;15.40;9.60;;;9.40;88.80;;;12.16;63.07;102316.28;5087632;28;20209;-57
2022/11/26 01:04:32;;;;;;;16.60;9.10;;;9.30;88.80;;;12.16;63.17;102326.84;5087900;28;20185;-59
2022/11/26 01:06:59;;;;;;;12.77;8.73;;;9.30;89.60;;;12.17;63.26;102328.47;5082087;28;20334;-56
2022/11/26 01:09:26;;;;;;;20.50;10.30;;;9.30;89.00;;;12.19;63.05;102334.44;5085072;28;20829;-56
2022/11/26 01:11:54;;;;;;;13.87;8.90;;;9.30;89.00;;;12.20;63.28;102336.13;5084185;28;20331;-58
2022/11/26 01:14:24;;;;;;;22.60;9.63;;;9.30;89.00;;;12.21;63.18;102335.16;5091414;28;20197;-57
2022/11/26 01:16:54;;;;;;;16.80;9.33;;;9.30;89.20;;;12.23;63.05;102342.91;5096473;28;20189;-58
2022/11/26 01:19:21;;;;;;;11.97;8.03;;;9.40;89.30;;;12.22;63.38;102344.72;5079582;28;20714;-57
2022/11/26 01:21:48;;;;;;;18.43;8.63;;;9.30;89.10;;;12.26;63.16;102347.06;5066390;28;20280;-57
2022/11/26 01:24:15;;;;;;;14.77;8.73;;;9.40;89.50;;;12.29;63.32;102354.72;5066240;28;20209;-57
2022/11/26 01:26:44;;;;;;;19.50;10.57;;;9.40;89.50;;;12.31;63.25;102350.13;5067214;28;20244;-58
2022/11/26 01:29:16;;;;;;;14.77;9.20;;;9.40;89.40;;;12.33;63.49;102356.91;5067400;28;20218;-58
2022/11/26 01:31:44;;;;;;;16.43;9.00;;;9.50;89.20;;;12.35;63.03;102359.41;5065208;28;20223;-58
2022/11/26 01:34:11;;;;;;;14.70;8.87;;;9.50;88.90;;;12.33;63.02;102362.19;5064523;28;20220;-57
2022/11/26 01:36:40;;;;;;;14.90;9.27;;;9.50;88.80;;;12.33;63.06;102361.34;5072777;28;20223;-56
2022/11/26 01:39:15;;;;;;;16.50;10.00;;;9.50;88.90;;;12.33;63.03;102361.34;5082292;28;20186;-57
2022/11/26 01:41:51;;;;;;;20.83;10.87;;;9.50;88.90;;;12.35;62.97;102365.53;5079545;28;20221;-58
2022/11/26 01:44:23;;;;;;;16.57;10.17;;;9.50;88.70;;;12.38;63.03;102367.03;5099534;28;20265;-58
2022/11/26 01:46:52;;;;;;;15.23;9.27;;;9.50;89.20;;;12.39;62.95;102381.88;5094742;28;20188;-57
2022/11/26 01:49:21;;;;;;;16.70;9.53;;;9.60;88.60;;;12.40;63.08;102378.28;5085249;28;20209;-58
2022/11/26 01:51:59;;;;;;;21.23;11.43;;;9.60;88.60;;;12.37;62.10;102383.84;5080064;28;20213;-56
2022/11/26 01:54:27;;;;;;;13.27;9.40;;;9.60;87.70;;;12.32;62.34;102386.09;5061676;28;20579;-58
2022/11/26 01:57:02;;;;;;;16.07;9.47;;;9.60;87.60;;;12.28;62.37;102392.66;5063505;28;20220;-55
2022/11/26 01:59:35;;;;;;;15.27;9.33;;;9.60;87.50;;;12.21;62.58;102395.88;5064097;28;20174;-57
2022/11/26 02:02:03;;;;;;;18.03;10.00;;;9.60;87.20;;;12.21;62.37;102390.59;5062232;28;20248;-61
2022/11/26 02:04:36;;;;;;;14.60;9.07;;;9.60;87.30;;;12.17;63.04;102391.84;5063267;28;20194;-58
2022/11/26 02:07:04;;;;;;;15.23;9.07;;;9.50;87.40;;;12.20;62.77;102394.19;5079758;28;20189;-57
2022/11/26 02:09:32;;;;;;;17.87;10.07;;;9.50;87.40;;;12.18;62.45;102396.16;5073683;28;20213;-57
2022/11/26 02:11:59;;;;;;;16.87;9.50;;;9.50;87.30;;;12.15;62.29;102399.06;5063053;28;20203;-57
2022/11/26 02:14:35;;;;;;;18.43;10.30;;;9.50;86.90;;;12.05;61.96;102408.00;5062603;28;20199;-58
2022/11/26 02:17:20;;;;;;;17.83;10.50;;;9.40;86.00;;;11.86;62.08;102408.84;5063993;28;20249;-57
2022/11/26 02:20:32;;;;;;;14.80;9.97;;;9.40;85.90;;;11.70;62.78;102405.97;5062327;28;20197;-58
2022/11/26 02:23:36;;;;;;;16.60;9.70;;;9.30;86.10;;;11.60;62.98;102410.38;5064463;28;20213;-58
2022/11/26 02:26:43;;;;;;;15.97;10.30;;;9.20;86.20;;;11.50;63.06;102405.09;5064689;28;20194;-56
2022/11/26 02:29:21;;;;;;;15.53;9.70;;;9.10;86.20;;;11.51;62.59;102419.13;5080630;28;20290;-58
2022/11/26 02:31:58;;;;;;;15.70;8.90;;;9.00;86.30;;;11.49;63.17;102418.44;5081456;28;20266;-57
2022/11/26 02:34:34;;;;;;;11.40;8.03;;;9.00;86.60;;;11.49;63.01;102424.56;5069721;28;20190;-58
2022/11/26 02:37:12;;;;;;;16.03;9.50;;;8.90;87.10;;;11.52;63.81;102432.19;5063693;28;20196;-58
2022/11/26 02:39:39;;;;;;;14.47;8.50;;;8.90;87.70;;;11.56;63.32;102430.09;5059153;28;20251;-58
2022/11/26 02:42:24;;;;;;;15.00;9.13;;;8.90;87.70;;;11.53;62.83;102435.66;5059935;28;20734;-58
2022/11/26 02:44:56;;;;;;;17.33;11.03;;;8.90;87.60;;;11.54;63.28;102437.31;5101546;28;20622;-57
2022/11/26 02:47:28;;;;;;;17.73;9.60;;;8.90;87.60;;;11.47;62.73;102433.56;5074879;28;20633;-58
2022/11/26 02:50:01;;;;;;;18.83;9.37;;;8.90;87.10;;;11.42;62.86;102433.16;5079217;28;20216;-57
2022/11/26 02:52:32;;;;;;;16.60;9.57;;;8.90;86.90;;;11.37;63.08;102435.38;5080741;28;20237;-57
2022/11/26 02:55:04;;;;;;;13.60;8.80;;;8.90;86.90;;;11.36;62.96;102441.63;5081116;28;20204;-57
2022/11/26 02:57:40;;;;;;;15.40;9.63;;;8.80;86.90;;;11.34;62.84;102452.28;5080650;28;20197;-60
2022/11/26 03:00:09;;;;;;;13.50;9.53;;;8.70;86.90;;;11.32;62.90;102448.13;5078017;28;20180;-55
2022/11/26 03:02:44;;;;;;;18.80;9.47;;;8.70;87.10;;;11.29;62.81;102453.69;5075127;28;20267;-54
2022/11/26 03:05:16;;;;;;;17.27;9.37;;;8.70;87.00;;;11.23;63.42;102455.06;5067944;28;20267;-55
2022/11/26 03:07:48;;;;;;;17.10;9.87;;;8.70;87.20;;;11.22;63.55;102460.47;5063012;28;20252;-54
2022/11/26 03:10:15;;;;;;;15.90;9.27;;;8.60;87.10;;;11.19;63.25;102453.69;5055460;28;20616;-54
2022/11/26 03:12:43;;;;;;;19.10;9.33;;;8.60;87.20;;;11.17;63.75;102466.13;5053008;28;20213;-55
2022/11/26 03:15:10;;;;;;;15.77;8.43;;;8.50;87.30;;;11.13;63.74;102466.53;5075900;28;20193;-55
2022/11/26 03:17:39;;;;;;;16.87;8.90;;;8.50;87.40;;;11.06;63.25;102458.34;5079424;28;20189;-55
2022/11/26 03:20:07;;;;;;;16.13;8.43;;;8.50;87.50;;;11.07;63.73;102459.19;5060682;28;20212;-54
2022/11/26 03:22:35;;;;;;;15.37;9.53;;;8.40;87.60;;;11.05;63.78;102456.69;5054639;28;20214;-54
2022/11/26 03:25:03;;;;;;;16.97;9.83;;;8.40;87.60;;;11.05;63.45;102461.13;5054674;28;20243;-56
2022/11/26 03:27:31;;;;;;;14.23;9.27;;;8.40;87.60;;;11.03;63.64;102463.06;5064080;28;20388;-56
2022/11/26 03:29:58;;;;;;;17.87;9.07;;;8.40;87.70;;;11.03;63.45;102460.44;5074648;28;20266;-57
2022/11/26 03:32:25;;;;;;;14.87;8.00;;;8.30;87.70;;;11.03;63.59;102458.59;5073667;28;20281;-56
2022/11/26 03:34:53;;;;;;;14.27;8.33;;;8.30;87.90;;;11.05;63.60;102456.69;5074128;28;20593;-56
2022/11/26 03:37:20;;;;;;;14.43;8.80;;;8.40;88.20;;;11.06;63.17;102452.25;5065061;28;20492;-57
2022/11/26 03:39:47;;;;;;;14.17;8.80;;;8.40;88.20;;;11.07;63.36;102446.84;5053823;28;20186;-56
2022/11/26 03:42:14;;;;;;;15.10;9.27;;;8.30;88.20;;;11.12;63.78;102456.97;5070282;28;20267;-54
2022/11/26 03:44:41;;;;;;;15.30;8.93;;;8.40;88.70;;;11.13;63.45;102451.56;5092063;28;20222;-55
2022/11/26 03:47:08;;;;;;;15.67;9.20;;;8.40;88.40;;;11.15;63.13;102451.44;5086152;28;20235;-54
2022/11/26 03:49:35;;;;;;;14.27;8.80;;;8.40;88.20;;;11.14;63.49;102455.03;5073682;28;20267;-56
2022/11/26 03:52:03;;;;;;;15.13;9.43;;;8.40;88.00;;;11.10;63.12;102458.94;5073052;28;20685;-54
2022/11/26 03:54:30;;;;;;;15.73;8.90;;;8.40;87.80;;;11.07;63.26;102453.91;5071034;28;20201;-55
2022/11/26 03:56:58;;;;;;;17.03;10.13;;;8.40;87.80;;;11.07;63.24;102446.00;5058095;28;20197;-60
2022/11/26 03:59:24;;;;;;;18.70;9.70;;;8.40;88.00;;;11.06;63.80;102453.06;5072732;28;20258;-57
2022/11/26 04:01:51;;;;;;;14.10;9.20;;;8.40;88.00;;;11.06;63.58;102453.06;5072439;28;20259;-55
2022/11/26 04:04:20;;;;;;;19.97;10.63;;;8.40;88.10;;;11.08;63.32;102452.97;5073886;28;20205;-55
2022/11/26 04:06:47;;;;;;;13.80;8.80;;;8.40;88.00;;;11.08;63.60;102443.22;5076474;28;20463;-59
2022/11/26 04:09:15;;;;;;;17.20;9.37;;;8.40;88.20;;;11.08;63.67;102450.31;5071068;28;20209;-56
2022/11/26 04:11:42;;;;;;;18.13;10.60;;;8.40;88.00;;;11.05;63.83;102453.22;5056470;28;20209;-55
2022/11/26 04:14:09;;;;;;;14.83;7.70;;;8.40;87.90;;;11.04;63.40;102457.66;5061590;28;20244;-55
2022/11/26 04:16:36;;;;;;;14.37;9.37;;;8.40;88.00;;;11.09;64.04;102458.09;5094105;28;20202;-55
2022/11/26 04:19:03;;;;;;;13.57;9.63;;;8.40;89.10;;;11.20;64.33;102465.88;5071306;28;20194;-57
2022/11/26 04:21:30;;;;;;;14.83;9.40;;;8.40;89.20;;;11.27;63.68;102471.41;5056029;28;20217;-54
2022/11/26 04:23:57;;;;;;;15.00;9.37;;;8.50;89.10;;;11.31;63.53;102475.47;5064513;28;20199;-56
2022/11/26 04:26:26;;;;;;;18.77;9.50;;;8.50;88.80;;;11.35;63.42;102484.75;5075855;28;20529;-55
2022/11/26 04:28:53;;;;;;;13.93;8.23;;;8.50;88.50;;;11.36;63.00;102486.44;5075857;28;20598;-56
2022/11/26 04:31:20;;;;;;;12.23;8.83;;;8.50;88.30;;;11.37;63.30;102493.38;5076287;28;20300;-55
2022/11/26 04:33:47;;;;;;;21.40;9.83;;;8.50;88.10;;;11.36;63.24;102497.78;5076238;28;20752;-56
2022/11/26 04:36:14;;;;;;;14.03;8.70;;;8.50;88.00;;;11.36;63.35;102499.63;5075522;28;20700;-55
2022/11/26 04:38:41;;;;;;;17.27;8.53;;;8.50;88.00;;;11.34;62.87;102498.91;5057595;28;20206;-57
2022/11/26 04:41:08;;;;;;;14.60;8.23;;;8.50;88.00;;;11.32;63.10;102493.78;5055659;28;20221;-57
2022/11/26 04:43:36;;;;;;;12.87;8.30;;;8.50;88.10;;;11.32;63.41;102501.69;5075109;28;20250;-57
2022/11/26 04:46:04;;;;;;;15.27;10.03;;;8.50;88.10;;;11.30;62.77;102503.63;5096514;28;20204;-55
2022/11/26 04:48:31;;;;;;;14.43;8.80;;;8.50;87.70;;;11.29;63.16;102516.94;5078074;28;20197;-54
2022/11/26 04:50:58;;;;;;;14.33;9.40;;;8.50;87.90;;;11.29;62.92;102514.31;5074954;28;20251;-55
2022/11/26 04:53:25;;;;;;;11.17;8.57;;;8.50;88.00;;;11.32;63.12;102521.94;5060228;28;20197;-55
2022/11/26 04:55:52;;;;;;;10.07;8.77;;;8.50;87.90;;;11.32;62.71;102527.19;5055838;28;20198;-57
2022/11/26 04:58:20;;;;;;;24.53;10.70;;;8.50;87.80;;;11.31;62.89;102529.03;5070698;28;20204;-56
2022/11/26 05:00:49;;;;;;;10.87;8.20;;;8.50;87.30;;;11.28;62.70;102531.94;5075584;28;20186;-56
2022/11/26 05:03:17;;;;;;;40.50;11.13;;;8.40;87.10;;;11.22;62.02;102534.28;5075792;28;20653;-55
2022/11/26 05:05:45;;;;;;;12.37;7.50;;;8.40;86.90;;;11.17;62.18;102529.38;5074731;28;20251;-55
2022/11/26 05:08:12;;;;;;;21.87;9.00;;;8.40;87.10;;;11.14;62.64;102536.72;5090558;28;20193;-53
2022/11/26 05:10:40;;;;;;;15.77;8.33;;;8.30;87.30;;;11.15;62.75;102538.41;5075503;28;20220;-56
2022/11/26 05:13:07;;;;;;;22.33;9.23;;;8.30;87.50;;;11.17;62.66;102539.91;5075244;28;20669;-57
2022/11/26 05:15:34;;;;;;;12.07;9.13;;;8.30;87.50;;;11.16;62.28;102542.69;5089766;28;20591;-57
2022/11/26 05:18:03;;;;;;;19.40;7.73;;;8.30;87.50;;;11.16;62.30;102542.69;5082025;28;20668;-55
2022/11/26 05:20:30;;;;;;;13.70;8.53;;;8.30;87.50;;;11.17;62.74;102544.38;5063789;28;20211;-58
2022/11/26 05:22:57;;;;;;;16.33;8.37;;;8.30;87.70;;;11.19;62.22;102550.34;5087705;28;20345;-59
2022/11/26 05:25:24;;;;;;;16.17;9.43;;;8.30;87.70;;;11.15;61.92;102546.31;5080664;28;20604;-56
2022/11/26 05:27:51;;;;;;;13.93;9.37;;;8.20;87.10;;;11.01;62.41;102554.56;5063789;28;20197;-55
2022/11/26 05:30:18;;;;;;;12.73;8.57;;;8.20;86.40;;;10.95;62.99;102563.00;5055002;28;20206;-57
2022/11/26 05:32:45;;;;;;;12.37;8.30;;;8.20;87.40;;;10.99;62.99;102551.22;5055274;28;20213;-54
2022/11/26 05:35:14;;;;;;;16.67;8.87;;;8.20;87.80;;;10.99;62.86;102572.31;5073548;28;20566;-54
2022/11/26 05:37:41;;;;;;;16.57;8.80;;;8.30;87.40;;;10.92;63.00;102572.00;5070594;28;20548;-56
2022/11/26 05:40:10;;;;;;;8.80;7.20;;;8.20;86.90;;;10.90;62.27;102563.41;5061954;28;20194;-57
2022/11/26 05:42:37;;;;;;;10.77;8.70;;;8.20;86.90;;;10.95;62.97;102569.13;5063753;28;20248;-56
2022/11/26 05:45:06;;;;;;;60.67;11.30;;;8.20;87.60;;;10.95;62.65;102565.63;5082256;28;20200;-54
2022/11/26 05:47:33;;;;;;;24.87;11.07;;;8.20;87.10;;;10.89;62.35;102567.81;5067949;28;20268;-56
2022/11/26 05:50:00;;;;;;;20.00;10.93;;;8.20;86.80;;;10.82;62.93;102569.31;5055633;28;20248;-55
2022/11/26 05:52:29;;;;;;;14.37;9.10;;;8.10;86.80;;;10.76;62.34;102571.66;5070154;28;20209;-54
2022/11/26 05:54:56;;;;;;;15.07;10.43;;;8.10;86.80;;;10.64;63.06;102570.88;5054996;28;20252;-54
2022/11/26 05:57:23;;;;;;;14.97;9.80;;;8.00;87.30;;;10.54;63.57;102580.53;5059998;28;20216;-55
2022/11/26 05:59:50;;;;;;;10.83;8.80;;;8.00;87.30;;;10.52;64.11;102590.34;5074352;28;20223;-55
2022/11/26 06:02:17;;;;;;;12.90;8.93;;;7.90;87.40;;;10.61;64.04;102589.56;5067337;28;20218;-54
2022/11/26 06:04:44;;;;;;;21.63;10.57;;;7.90;88.50;;;10.61;63.94;102588.72;5055011;28;20190;-55
2022/11/26 06:07:11;;;;;;;17.77;10.77;;;7.90;88.30;;;10.62;64.16;102586.00;5071595;28;20580;-59
2022/11/26 06:09:40;;;;;;;22.13;10.53;;;7.90;88.40;;;10.50;64.42;102591.44;5074478;28;20209;-55
2022/11/26 06:12:07;;;;;;;18.07;9.93;;;7.90;88.20;;;10.47;64.26;102587.25;5065339;28;20214;-56
2022/11/26 06:14:34;;;;;;;33.80;11.37;;;7.90;88.20;;;10.49;64.38;102595.88;5065988;28;20218;-56
2022/11/26 06:17:08;;;;;;;27.47;10.73;;;7.90;88.60;;;10.53;64.08;102592.00;5078860;28;20258;-56
2022/11/26 06:19:35;;;;;;;24.90;11.63;;;7.90;88.90;;;10.56;64.53;102591.75;5058969;28;20193;-54
2022/11/26 06:22:02;;;;;;;22.77;16.47;;;7.90;88.70;;;10.63;64.44;102597.34;5074238;28;20217;-54
2022/11/26 06:24:31;;;;;;;15.37;10.00;;;7.90;89.10;;;10.71;64.41;102606.28;5074893;28;20547;-55
2022/11/26 06:26:59;;;;;;;14.50;10.67;;;7.90;89.20;;;10.79;64.07;102606.44;5060785;28;20232;-57
2022/11/26 06:29:27;;;;;;;22.20;11.43;;;8.00;89.70;;;10.88;64.39;102612.75;5074309;28;20193;-57
2022/11/26 06:31:54;;;;;;;14.70;9.17;;;8.00;89.80;;;10.96;64.55;102610.28;5073215;28;20560;-54
2022/11/26 06:34:22;;;;;;;20.03;10.63;;;8.10;89.80;;;11.04;63.95;102615.75;5075046;28;20588;-56
2022/11/26 06:36:49;;;;;;;20.23;11.63;;;8.10;89.50;;;10.85;64.03;102619.09;5056944;28;20251;-55
2022/11/26 06:39:16;;;;;;;22.50;10.60;;;8.10;88.40;;;10.77;63.86;102626.81;5054685;28;20194;-56
2022/11/26 06:41:43;;;;;;;19.80;11.20;;;8.10;88.20;;;10.73;63.57;102628.03;5055708;28;20633;-54
2022/11/26 06:44:11;;;;;;;20.13;10.30;;;8.10;88.20;;;10.76;64.05;102633.06;5073883;28;20197;-57
2022/11/26 06:46:38;;;;;;;26.10;11.60;;;8.10;88.50;;;10.70;63.93;102635.34;5056362;28;20193;-55
2022/11/26 06:49:06;;;;;;;38.43;10.90;;;8.10;88.60;;;10.74;63.84;102642.06;5074544;28;20272;-57
2022/11/26 06:51:33;;;;;;;13.77;9.53;;;8.10;88.50;;;10.77;63.85;102645.25;5073459;28;20258;-54
2022/11/26 06:54:00;;;;;;;24.77;10.23;;;8.00;88.80;;;10.83;64.07;102642.13;5073872;28;20193;-54
2022/11/26 06:56:27;;;;;;;15.70;10.87;;;8.00;89.00;;;10.91;64.34;102644.06;5058307;28;20580;-55
2022/11/26 06:58:55;;;;;;;17.80;11.17;;;8.10;89.30;;;10.98;63.86;102650.53;5054297;28;20263;-56
2022/11/26 07:01:25;;;;;;;16.73;11.37;;;8.10;89.70;;;11.06;64.02;102652.50;5057703;28;20216;-57
2022/11/26 07:03:52;;;;;;;16.57;11.53;;;8.10;89.90;;;11.14;63.38;102639.50;5073818;28;20216;-55
2022/11/26 07:06:23;;;;;;;17.73;11.50;;;8.20;89.60;;;11.06;63.63;102648.06;5066949;28;20193;-57
2022/11/26 07:08:52;;;;;;;18.13;10.63;;;8.20;88.60;;;10.94;63.87;102648.25;5072806;28;20231;-55
2022/11/26 07:11:21;;;;;;;20.40;11.33;;;8.20;88.20;;;10.85;63.97;102645.44;5071837;28;20227;-58
2022/11/26 07:13:48;;;;;;;27.50;12.83;;;8.20;88.30;;;10.87;64.39;102654.06;5066148;28;20311;-55
2022/11/26 07:16:15;;;;;;;16.10;11.20;;;8.20;89.30;;;10.91;64.08;102649.34;5079380;28;20661;-57
2022/11/26 07:18:47;;;;;;;20.50;12.27;;;8.20;88.70;;;10.89;64.04;102646.00;5074538;28;20246;-57
2022/11/26 07:21:16;;;;;;;16.93;11.10;;;8.20;88.60;;;10.87;63.81;102651.41;5053340;28;20213;-57
2022/11/26 07:23:43;;;;;;;26.23;12.03;;;8.20;88.50;;;10.77;63.75;102653.16;5053005;28;20190;-54
2022/11/26 07:26:12;;;;;;;23.47;11.40;;;8.10;88.30;;;10.71;64.35;102658.09;5065516;28;20205;-58
2022/11/26 07:28:40;;;;;;;11.80;10.53;;;8.10;88.40;;;10.68;64.13;102668.88;5073133;28;20189;-56
2022/11/26 07:31:10;;;;;;;20.63;11.67;;;8.10;88.40;;;10.65;64.10;102675.25;5074108;28;20274;-55
2022/11/26 07:33:45;;;;;;;15.33;9.83;;;8.00;88.60;;;10.69;64.73;102671.41;5074483;28;20573;-54
2022/11/26 07:36:17;;;;;;;21.37;12.00;;;8.00;89.00;;;10.69;64.97;102674.03;5061284;28;20190;-53
2022/11/26 07:38:44;;;;;;;29.40;12.17;;;8.00;89.50;;;10.64;64.73;102678.00;5062267;28;20204;-55
2022/11/26 07:41:15;;;;;;;17.50;10.73;;;8.00;89.10;;;10.59;64.95;102681.03;5077275;28;20239;-56
2022/11/26 07:43:43;;;;;;;18.00;10.80;;;8.00;89.00;;;10.64;64.83;102689.38;5087365;28;20214;-57
2022/11/26 07:46:13;;;;;;;22.43;11.10;;;8.00;89.40;;;10.68;64.57;102684.69;5084903;28;20219;-53
2022/11/26 07:48:40;;;;;;;24.47;12.60;;;8.00;89.50;;;10.67;64.84;102694.38;5077500;28;20626;-55
2022/11/26 07:51:16;;;;;;;20.03;11.43;;;8.00;89.60;;;10.55;64.84;102678.78;5076252;28;20227;-55
2022/11/26 07:53:43;;;;;;;31.70;11.67;;;7.90;89.40;;;10.47;64.95;102692.56;5078472;28;20200;-56
2022/11/26 07:56:10;;;;;;;19.50;10.43;;;7.90;89.30;;;10.52;65.15;102694.81;5070151;28;20201;-56
2022/11/26 07:58:37;;;;;;;16.03;11.60;;;7.90;89.40;;;10.55;64.98;102695.41;5057713;28;20201;-56
2022/11/26 08:01:09;;;;;;;45.40;12.43;;;7.90;89.90;;;10.54;65.30;102690.25;5057072;28;20193;-57
2022/11/26 08:03:38;;;;;;;21.10;12.27;;;7.90;89.70;;;10.54;65.02;102696.38;5075923;28;20630;-57
2022/11/26 08:06:14;;;;;;;24.53;11.47;;;7.90;90.00;;;10.53;65.44;102685.97;5074226;28;20189;-57
2022/11/26 08:08:41;;;;;;;17.37;10.07;;;7.90;89.90;;;10.56;65.05;102702.34;5076901;28;20247;-56
2022/11/26 08:11:13;;;;;;;20.63;9.93;;;7.90;90.10;;;10.58;64.96;102700.41;5064691;28;20338;-56
2022/11/26 08:13:41;;;;;;;17.73;10.30;;;7.90;90.00;;;10.56;65.52;102704.97;5076439;28;20204;-57
2022/11/26 08:16:09;;;;;;;17.77;10.70;;;7.90;90.10;;;10.44;65.56;102707.75;5083988;28;20197;-56
2022/11/26 08:18:37;;;;;;;19.87;11.03;;;7.90;90.10;;;10.38;66.34;102708.28;5074456;28;20283;-57
2022/11/26 08:21:04;;;;;;;20.90;10.20;;;7.80;90.00;;;10.40;66.38;102717.72;5056297;28;20224;-55
2022/11/26 08:23:34;;;;;;;11.17;9.03;;;7.80;90.10;;;10.46;66.30;102716.38;5056642;28;20663;-59
2022/11/26 08:26:05;;;;;;;16.03;10.03;;;7.90;90.20;;;10.55;65.57;102721.75;5061591;28;20222;-57
2022/11/26 08:28:48;;;;;;;12.40;9.80;;;7.90;90.30;;;10.61;66.15;102721.22;5056699;28;20284;-58
2022/11/26 08:31:16;;;;;;;13.37;10.53;;;7.90;90.30;;;10.69;65.56;102723.22;5056105;28;20317;-56
2022/11/26 08:33:44;;;;;;;19.33;9.47;;;7.90;90.40;;;10.77;65.83;102721.63;5055507;28;20193;-56
2022/11/26 08:36:11;;;;;;;15.00;9.50;;;8.00;90.40;;;10.77;65.47;102719.00;5072556;28;20216;-55
2022/11/26 08:38:40;;;;;;;13.00;10.10;;;8.00;90.20;;;10.69;65.01;102718.81;5073534;28;20615;-57
2022/11/26 08:41:11;;;;;;;13.33;10.27;;;8.00;90.10;;;10.60;65.77;102727.44;5074933;28;20185;-55
2022/11/26 08:43:39;;;;;;;12.77;8.23;;;8.00;90.10;;;10.68;65.70;102725.03;5074489;28;20201;-53
2022/11/26 08:46:26;;;;;;;15.60;9.33;;;8.10;90.10;;;10.83;65.77;102742.22;5063228;28;20183;-57
2022/11/26 08:48:55;;;;;;;12.50;8.60;;;8.10;90.10;;;10.92;64.78;102739.75;5073748;28;20217;-56
2022/11/26 08:51:23;;;;;;;13.40;9.37;;;8.00;90.10;;;10.99;64.70;102725.94;5074186;28;20716;-57
2022/11/26 08:53:51;;;;;;;14.87;9.17;;;8.10;90.20;;;11.11;65.15;102734.63;5074389;28;20197;-58
2022/11/26 08:56:18;;;;;;;12.50;9.87;;;8.20;90.50;;;11.15;64.65;102741.34;5063233;28;20198;-57
2022/11/26 08:58:47;;;;;;;24.13;10.33;;;8.20;90.20;;;11.19;64.33;102737.47;5054384;28;20251;-56
2022/11/26 09:01:18;;;;;;;11.97;8.70;;;8.30;90.10;;;11.23;64.60;102744.16;5054000;28;20210;-55
2022/11/26 09:03:47;;;;;;;16.67;13.30;;;8.30;90.00;;;11.17;64.78;102745.47;5054799;28;20251;-55
2022/11/26 09:06:14;;;;;;;13.97;10.53;;;8.40;89.90;;;11.19;64.55;102745.38;5064068;28;20254;-57
2022/11/26 09:11:28;;;;;;;14.37;9.40;;;8.40;90.00;;;11.23;64.71;102744.16;5064184;28;20218;-53
2022/11/26 09:13:57;;;;;;;14.00;9.80;;;8.50;90.00;;;11.27;64.44;102738.47;5054851;28;20198;-56
2022/11/26 09:16:25;;;;;;;12.13;8.83;;;8.50;90.00;;;11.31;64.51;102744.34;5081665;28;20201;-57
2022/11/26 09:18:53;;;;;;;14.67;9.10;;;8.50;90.00;;;11.41;64.78;102746.06;5071178;28;20193;-56
2022/11/26 09:21:21;;;;;;;13.60;9.77;;;8.60;90.10;;;11.48;64.21;102749.03;5054056;28;20205;-57
2022/11/26 09:23:48;;;;;;;13.97;9.63;;;8.60;90.10;;;11.47;64.29;102747.34;5054545;28;20193;-54
2022/11/26 09:26:17;;;;;;;15.27;10.10;;;8.60;90.00;;;11.46;64.42;102750.94;5061063;28;20203;-57
2022/11/26 09:28:45;;;;;;;13.43;10.33;;;8.60;90.00;;;11.48;64.32;102760.38;5074099;28;20690;-55
2022/11/26 09:31:13;;;;;;;13.47;10.67;;;8.70;90.00;;;11.42;64.61;102762.72;5074453;28;20274;-57
2022/11/26 09:33:40;;;;;;;15.37;12.10;;;8.70;90.00;;;11.36;64.51;102768.53;5033369;28;1209017;-56
2022/11/26 09:36:10;;;;;;;13.33;10.17;;;8.70;90.00;;;11.37;64.88;102762.25;5074869;28;20188;-56
2022/11/26 09:38:39;;;;;;;18.43;11.10;;;8.70;90.00;;;11.38;65.47;102774.50;5076140;28;20178;-56
2022/11/26 09:41:25;;;;;;;14.77;10.60;;;8.70;90.10;;;11.38;65.20;102769.22;5073442;28;20189;-57
2022/11/26 09:44:24;;;;;;;11.43;9.90;;;8.70;90.10;;;11.43;65.17;102767.03;5062040;28;20192;-57
2022/11/26 09:47:05;;;;;;;16.93;12.07;;;8.70;90.20;;;11.43;65.40;102774.94;5057990;28;20542;-58
2022/11/26 09:49:55;;;;;;;15.60;11.97;;;8.80;90.30;;;11.48;65.01;102770.13;5075542;28;20191;-55
2022/11/26 09:52:29;;;;;;;15.53;12.17;;;8.80;90.30;;;11.53;65.57;102783.72;5074149;28;20223;-56
2022/11/26 09:55:10;;;;;;;23.00;12.70;;;8.80;90.40;;;11.51;65.74;102789.13;5074692;28;20254;-58
2022/11/26 09:57:43;;;;;;;15.80;12.03;;;8.80;90.40;;;11.49;65.80;102791.06;5071076;28;20258;-56
2022/11/26 10:00:24;;;;;;;20.40;14.13;;;8.80;90.40;;;11.47;65.98;102794.81;5055325;28;20189;-57
2022/11/26 10:02:53;;;;;;;43.97;32.40;;;8.90;90.90;;;11.58;65.80;102792.94;5057982;28;20213;-56
2022/11/26 10:05:30;;;;;;;15.70;12.37;;;9.00;90.60;;;11.73;65.88;102796.09;5075380;28;20251;-56
2022/11/26 10:08:12;;;;;;;19.03;11.80;;;9.00;90.70;;;11.83;65.54;102802.25;5077851;28;20200;-55
2022/11/26 10:10:50;;;;;;;18.87;12.57;;;9.10;90.60;;;11.95;64.93;102803.84;5063418;28;20281;-56
2022/11/26 10:13:25;;;;;;;23.17;12.40;;;9.10;90.60;;;12.03;64.81;102803.16;5064358;28;20208;-57
2022/11/26 10:16:10;;;;;;;19.10;12.97;;;9.20;90.60;;;12.04;64.64;102810.13;5059511;28;20661;-57
2022/11/26 10:18:49;;;;;;;17.87;12.40;;;9.20;90.50;;;12.05;64.40;102796.78;5059536;28;20193;-56
2022/11/26 10:21:22;;;;;;;15.17;12.77;;;9.30;90.30;;;11.92;64.70;102804.09;5082782;28;20236;-58
2022/11/26 10:24:19;;;;;;;18.23;13.27;;;9.20;90.10;;;11.84;64.99;102808.38;5082113;28;20181;-58
2022/11/26 10:26:48;;;;;;;17.53;12.73;;;9.20;90.00;;;11.73;65.16;102805.81;5075770;28;20193;-57